Time;durP1;ratioP1;P1;durP2;ratioP2;P2;SDS_P1;SDS_P2;PMS_P1;PMS_P2;Temp;Humidity;BMP_temperature;BMP_pressure;BME280_temperature;BME280_humidity;BME280_pressure;Samples;Min_cycle;Max_cycle;Signal;HPM_P1;HPM_P2
2024/02/02 00:01:35;;;;;;;8.57;3.08;;;2.30;99.90;;;;;;4952524;28;20084;-65
2024/02/02 00:04:05;;;;;;;7.65;2.85;;;2.30;99.90;;;;;;4950816;28;20054;-65
2024/02/02 00:06:31;;;;;;;10.50;2.42;;;2.30;99.90;;;;;;4952521;28;20076;-65
2024/02/02 00:08:59;;;;;;;9.02;2.78;;;2.30;99.90;;;;;;4944755;28;20102;-65
2024/02/02 00:11:25;;;;;;;10.77;2.55;;;2.30;99.90;;;;;;4951534;29;20023;-65
2024/02/02 00:13:51;;;;;;;4.95;2.55;;;2.40;99.90;;;;;;4943556;28;20080;-65
2024/02/02 00:16:16;;;;;;;4.60;1.95;;;2.40;99.90;;;;;;4940319;28;20036;-65
2024/02/02 00:18:42;;;;;;;3.75;2.33;;;2.50;99.90;;;;;;4989403;28;20040;-65
2024/02/02 00:21:08;;;;;;;5.00;2.00;;;2.60;99.90;;;;;;4955513;28;20130;-65
2024/02/02 00:23:34;;;;;;;10.30;3.65;;;2.70;99.90;;;;;;4949766;28;20050;-66
2024/02/02 00:26:00;;;;;;;5.68;2.78;;;2.70;99.90;;;;;;4951735;28;20479;-65
2024/02/02 00:28:26;;;;;;;11.55;2.30;;;2.70;99.90;;;;;;4973280;28;20470;-65
2024/02/02 00:30:52;;;;;;;6.03;2.38;;;2.70;99.90;;;;;;4964229;28;20464;-65
2024/02/02 00:33:18;;;;;;;4.90;2.45;;;2.70;99.90;;;;;;4981053;28;20380;-65
2024/02/02 00:35:43;;;;;;;9.25;2.40;;;2.80;99.90;;;;;;5025561;28;20037;-65
2024/02/02 00:38:09;;;;;;;19.75;3.35;;;2.80;99.90;;;;;;4944040;28;20395;-65
2024/02/02 00:40:35;;;;;;;21.92;2.97;;;2.80;99.90;;;;;;4950146;28;20450;-65
2024/02/02 00:43:00;;;;;;;12.50;3.22;;;2.80;99.90;;;;;;4949970;28;20050;-65
2024/02/02 00:45:26;;;;;;;4.72;2.97;;;2.80;99.90;;;;;;4950623;28;20030;-67
2024/02/02 00:47:52;;;;;;;5.65;2.60;;;2.70;99.90;;;;;;4950696;28;20453;-66
2024/02/02 00:50:18;;;;;;;9.25;3.25;;;2.70;99.90;;;;;;4951145;28;20038;-66
2024/02/02 00:52:44;;;;;;;8.80;3.03;;;2.60;99.90;;;;;;4930887;29;20085;-66
2024/02/02 00:55:10;;;;;;;6.45;3.20;;;2.70;99.90;;;;;;5037765;28;20046;-66
2024/02/02 00:57:35;;;;;;;5.32;2.63;;;2.60;99.90;;;;;;4937844;28;20023;-66
2024/02/02 01:00:02;;;;;;;11.98;2.13;;;2.70;99.90;;;;;;4951313;28;20035;-66
2024/02/02 01:02:28;;;;;;;8.70;2.05;;;2.70;99.90;;;;;;4945353;28;20039;-65
2024/02/02 01:04:54;;;;;;;4.65;2.50;;;2.60;99.90;;;;;;4948617;28;20543;-65
2024/02/02 01:07:22;;;;;;;2.72;1.88;;;2.60;99.90;;;;;;4934395;29;20038;-65
2024/02/02 01:09:49;;;;;;;6.22;2.63;;;2.70;99.90;;;;;;4951326;28;20027;-66
2024/02/02 01:12:15;;;;;;;8.48;1.75;;;2.70;99.90;;;;;;4943676;28;20450;-65
2024/02/02 01:14:41;;;;;;;10.55;2.05;;;2.70;99.90;;;;;;4946777;28;20086;-65
2024/02/02 01:17:07;;;;;;;17.80;5.47;;;2.70;99.90;;;;;;5041835;28;20132;-66
2024/02/02 01:19:35;;;;;;;8.35;2.58;;;2.60;99.90;;;;;;4950389;28;20475;-65
2024/02/02 01:22:01;;;;;;;6.28;2.80;;;2.60;99.90;;;;;;4942780;28;20063;-65
2024/02/02 01:24:27;;;;;;;3.33;1.80;;;2.70;99.90;;;;;;4950833;29;20447;-65
2024/02/02 01:26:52;;;;;;;4.70;2.42;;;2.70;99.90;;;;;;4949488;28;20023;-66
2024/02/02 01:29:18;;;;;;;14.43;3.42;;;2.70;99.90;;;;;;4951295;28;20031;-66
2024/02/02 01:31:44;;;;;;;10.15;2.63;;;2.70;99.90;;;;;;4951265;28;20035;-66
2024/02/02 01:34:10;;;;;;;5.15;2.17;;;2.70;99.90;;;;;;4948848;29;20129;-66
2024/02/02 01:36:36;;;;;;;23.08;3.05;;;2.80;99.90;;;;;;4950036;28;20034;-66
2024/02/02 01:39:04;;;;;;;1.95;1.63;;;2.80;99.90;;;;;;4951130;28;20487;-66
2024/02/02 01:41:30;;;;;;;7.28;2.53;;;2.80;99.90;;;;;;4950069;28;20039;-66
2024/02/02 01:43:55;;;;;;;10.95;2.53;;;2.80;99.90;;;;;;4950222;28;20093;-66
2024/02/02 01:46:22;;;;;;;6.43;3.35;;;2.80;99.90;;;;;;4949951;28;20027;-66
2024/02/02 01:48:48;;;;;;;5.63;3.53;;;2.80;99.90;;;;;;4983579;28;20031;-66
2024/02/02 01:51:14;;;;;;;14.32;3.13;;;2.80;99.90;;;;;;4976431;28;20392;-66
2024/02/02 01:53:42;;;;;;;8.50;3.00;;;2.80;99.90;;;;;;4949591;28;20418;-66
2024/02/02 01:56:08;;;;;;;8.80;4.10;;;2.80;99.90;;;;;;4974912;28;20043;-66
2024/02/02 01:58:34;;;;;;;6.07;3.35;;;2.80;99.90;;;;;;4946396;28;20028;-65
2024/02/02 02:01:00;;;;;;;4.05;3.08;;;2.80;99.90;;;;;;4988326;28;20106;-66
2024/02/02 02:03:26;;;;;;;11.55;2.92;;;2.80;99.90;;;;;;4936513;28;20036;-66
2024/02/02 02:05:52;;;;;;;5.20;2.85;;;2.80;99.90;;;;;;4945163;28;20034;-66
2024/02/02 02:08:18;;;;;;;6.13;3.58;;;2.80;99.90;;;;;;4954856;28;20029;-65
2024/02/02 02:10:48;;;;;;;5.72;3.63;;;2.80;99.90;;;;;;4950418;28;20093;-65
2024/02/02 02:13:14;;;;;;;5.80;3.58;;;2.80;99.90;;;;;;4947838;28;20483;-66
2024/02/02 02:15:40;;;;;;;9.75;4.43;;;2.80;99.90;;;;;;4965503;28;20038;-66
2024/02/02 02:18:06;;;;;;;8.55;2.65;;;2.70;99.90;;;;;;4949552;28;20031;-65
2024/02/02 02:20:34;;;;;;;8.73;3.42;;;2.70;99.90;;;;;;4944872;28;20035;-66
2024/02/02 02:23:00;;;;;;;13.88;3.80;;;2.70;99.90;;;;;;4945579;28;20031;-65
2024/02/02 02:25:26;;;;;;;4.03;2.53;;;2.60;99.90;;;;;;4949192;28;20511;-66
2024/02/02 02:27:52;;;;;;;20.30;4.35;;;2.60;99.90;;;;;;4949973;28;20042;-65
2024/02/02 02:30:18;;;;;;;7.60;4.30;;;2.60;99.90;;;;;;4949281;28;20094;-65
2024/02/02 02:32:44;;;;;;;21.13;3.28;;;2.70;99.90;;;;;;4941230;28;20031;-66
2024/02/02 02:35:11;;;;;;;4.40;2.60;;;2.70;99.90;;;;;;4948905;28;20035;-66
2024/02/02 02:37:36;;;;;;;14.25;3.90;;;2.70;99.90;;;;;;4948311;28;20100;-65
2024/02/02 02:40:03;;;;;;;10.52;2.38;;;2.70;99.90;;;;;;4950092;28;20035;-66
2024/02/02 02:42:29;;;;;;;13.35;4.22;;;2.70;99.90;;;;;;4964321;28;20043;-65
2024/02/02 02:44:54;;;;;;;6.13;3.72;;;2.60;99.90;;;;;;4948783;28;20468;-65
2024/02/02 02:47:20;;;;;;;6.15;2.83;;;2.60;99.90;;;;;;4949993;28;20446;-65
2024/02/02 02:49:46;;;;;;;22.45;3.05;;;2.60;99.90;;;;;;4981422;28;20037;-66
2024/02/02 02:52:12;;;;;;;3.00;1.65;;;2.50;99.90;;;;;;4951675;28;20070;-66
2024/02/02 02:54:38;;;;;;;9.32;3.05;;;2.50;99.90;;;;;;4948471;28;20055;-66
2024/02/02 02:57:04;;;;;;;7.90;4.03;;;2.50;99.90;;;;;;4949915;28;20042;-65
2024/02/02 02:59:32;;;;;;;12.02;3.38;;;2.50;99.90;;;;;;4950310;28;20031;-66
2024/02/02 03:01:58;;;;;;;5.95;2.75;;;2.50;99.90;;;;;;4948649;28;20464;-66
2024/02/02 03:04:25;;;;;;;12.45;3.47;;;2.50;99.90;;;;;;4947953;28;20035;-65
2024/02/02 03:06:51;;;;;;;7.93;2.97;;;2.50;99.90;;;;;;4981946;28;20040;-65
2024/02/02 03:09:17;;;;;;;11.88;3.50;;;2.50;99.90;;;;;;4948308;28;20031;-65
2024/02/02 03:11:42;;;;;;;2.15;1.80;;;2.50;99.90;;;;;;4948792;28;20026;-66
2024/02/02 03:14:08;;;;;;;8.02;2.83;;;2.60;99.90;;;;;;4949052;28;20460;-65
2024/02/02 03:16:34;;;;;;;10.20;3.40;;;2.60;99.90;;;;;;4948618;28;20479;-65
2024/02/02 03:19:00;;;;;;;9.18;2.55;;;2.60;99.90;;;;;;4947300;28;20491;-66
2024/02/02 03:21:25;;;;;;;6.63;3.30;;;2.60;99.90;;;;;;4944969;28;20085;-66
2024/02/02 03:23:51;;;;;;;5.75;3.17;;;2.60;99.90;;;;;;4946927;28;20090;-66
2024/02/02 03:26:17;;;;;;;11.40;3.45;;;2.60;99.90;;;;;;4942369;28;20031;-66
2024/02/02 03:28:43;;;;;;;10.98;4.55;;;2.60;99.90;;;;;;4945676;28;20085;-66
2024/02/02 03:31:08;;;;;;;6.60;2.60;;;2.60;99.90;;;;;;4948889;28;20100;-65
2024/02/02 03:33:34;;;;;;;5.97;2.47;;;2.60;99.90;;;;;;4945379;28;20036;-66
2024/02/02 03:36:00;;;;;;;5.38;2.75;;;2.70;99.90;;;;;;4949088;28;20035;-66
2024/02/02 03:38:26;;;;;;;8.88;3.05;;;2.70;99.90;;;;;;4949287;28;20039;-66
2024/02/02 03:40:52;;;;;;;5.18;2.47;;;2.80;99.90;;;;;;4951227;28;20039;-66
2024/02/02 03:43:17;;;;;;;12.65;3.20;;;2.80;99.90;;;;;;4951954;28;20041;-65
2024/02/02 03:45:43;;;;;;;7.88;2.60;;;2.80;99.90;;;;;;4938319;28;20117;-66
2024/02/02 03:48:09;;;;;;;7.60;4.07;;;2.80;99.90;;;;;;4950005;28;20177;-66
2024/02/02 03:50:35;;;;;;;14.18;3.08;;;2.80;99.90;;;;;;4946050;28;20039;-65
2024/02/02 03:53:00;;;;;;;10.20;3.30;;;2.80;99.90;;;;;;4950100;28;20598;-65
2024/02/02 03:55:27;;;;;;;6.18;2.88;;;2.90;99.90;;;;;;4951340;28;20453;-65
2024/02/02 03:57:53;;;;;;;6.40;3.22;;;2.90;99.90;;;;;;4984770;28;20113;-65
2024/02/02 04:00:22;;;;;;;6.20;2.67;;;2.90;99.90;;;;;;4952509;28;20157;-65
2024/02/02 04:02:48;;;;;;;6.80;2.15;;;2.90;99.90;;;;;;4952191;28;20031;-65
2024/02/02 04:05:16;;;;;;;12.43;2.88;;;3.00;99.90;;;;;;4949542;28;20491;-65
2024/02/02 04:07:42;;;;;;;6.60;2.65;;;3.00;99.90;;;;;;4950341;28;20037;-65
2024/02/02 04:10:09;;;;;;;4.07;2.17;;;3.00;99.90;;;;;;4944945;28;20494;-65
2024/02/02 04:12:35;;;;;;;9.05;3.05;;;3.10;99.90;;;;;;4950576;28;20093;-65
2024/02/02 04:15:01;;;;;;;4.47;2.55;;;3.10;99.90;;;;;;4951075;28;20089;-65
2024/02/02 04:17:26;;;;;;;4.53;2.80;;;3.10;99.90;;;;;;4935432;28;20035;-65
2024/02/02 04:19:52;;;;;;;5.30;2.72;;;3.10;99.90;;;;;;4947881;28;20050;-65
2024/02/02 04:22:18;;;;;;;10.57;3.50;;;3.10;99.90;;;;;;4952126;29;20042;-65
2024/02/02 04:24:44;;;;;;;9.63;2.30;;;3.10;99.90;;;;;;4951827;28;20035;-65
2024/02/02 04:27:10;;;;;;;6.50;3.08;;;3.20;99.90;;;;;;4950930;28;20097;-65
2024/02/02 04:29:36;;;;;;;9.07;3.22;;;3.20;99.90;;;;;;4950922;28;20020;-65
2024/02/02 04:32:03;;;;;;;13.90;3.33;;;3.20;99.90;;;;;;4950897;28;20479;-65
2024/02/02 04:34:28;;;;;;;20.38;3.53;;;3.30;99.90;;;;;;4950986;28;20130;-65
2024/02/02 04:36:54;;;;;;;3.75;2.20;;;3.20;99.90;;;;;;4946034;28;20081;-65
2024/02/02 04:39:20;;;;;;;8.32;2.25;;;3.20;99.90;;;;;;4943482;28;20455;-65
2024/02/02 04:41:49;;;;;;;4.70;3.00;;;3.20;99.90;;;;;;4943119;28;20054;-65
2024/02/02 04:44:14;;;;;;;10.55;2.40;;;3.30;99.90;;;;;;4951084;28;20039;-65
2024/02/02 04:46:41;;;;;;;13.38;3.33;;;3.30;99.90;;;;;;4945886;28;20023;-65
2024/02/02 04:49:06;;;;;;;6.80;3.00;;;3.30;99.90;;;;;;4950475;28;20122;-65
2024/02/02 04:51:32;;;;;;;8.50;2.30;;;3.40;99.90;;;;;;4927081;28;20023;-66
2024/02/02 04:53:58;;;;;;;22.00;2.63;;;3.40;99.90;;;;;;4951398;28;20047;-65
2024/02/02 04:56:24;;;;;;;9.70;2.67;;;3.40;99.90;;;;;;4951826;28;20049;-65
2024/02/02 04:58:51;;;;;;;18.67;4.28;;;3.50;99.90;;;;;;4947509;28;20472;-65
2024/02/02 05:01:19;;;;;;;5.32;2.15;;;3.50;99.90;;;;;;4952035;28;20028;-66
2024/02/02 05:03:45;;;;;;;8.70;2.63;;;3.60;99.90;;;;;;5012833;28;20030;-66
2024/02/02 05:06:11;;;;;;;3.90;2.65;;;3.60;99.90;;;;;;4953318;28;20031;-66
2024/02/02 05:08:37;;;;;;;4.57;2.83;;;3.70;99.90;;;;;;4949975;28;20035;-66
2024/02/02 05:11:03;;;;;;;8.73;1.95;;;3.70;99.90;;;;;;4949586;28;20031;-66
2024/02/02 05:13:28;;;;;;;9.65;2.35;;;3.80;99.90;;;;;;4949612;28;20035;-66
2024/02/02 05:15:55;;;;;;;4.70;2.50;;;3.80;99.90;;;;;;4950928;28;20031;-66
2024/02/02 05:18:20;;;;;;;7.47;3.50;;;3.80;99.90;;;;;;4946711;28;20134;-66
2024/02/02 05:20:48;;;;;;;5.10;3.00;;;3.90;99.90;;;;;;4947410;28;20118;-66
2024/02/02 05:23:14;;;;;;;11.52;4.00;;;3.80;99.90;;;;;;4964993;28;20516;-66
2024/02/02 05:25:40;;;;;;;4.35;2.20;;;3.90;99.90;;;;;;4976874;28;20058;-66
2024/02/02 05:28:06;;;;;;;7.40;2.47;;;3.80;99.90;;;;;;4951253;28;20108;-66
2024/02/02 05:30:32;;;;;;;5.50;2.00;;;3.90;99.90;;;;;;4950543;28;20038;-66
2024/02/02 05:32:57;;;;;;;6.72;2.22;;;3.90;99.90;;;;;;4950317;28;20085;-66
2024/02/02 05:35:23;;;;;;;7.90;3.53;;;4.20;99.90;;;;;;4951041;28;20036;-67
2024/02/02 05:37:49;;;;;;;5.35;2.47;;;4.40;99.90;;;;;;4980881;28;20040;-66
2024/02/02 05:40:15;;;;;;;3.15;1.75;;;4.20;99.90;;;;;;4952576;28;20062;-66
2024/02/02 05:42:43;;;;;;;11.38;2.58;;;4.00;99.90;;;;;;4950237;28;20055;-67
2024/02/02 05:45:09;;;;;;;7.57;2.20;;;3.80;99.90;;;;;;4950487;28;20035;-65
2024/02/02 05:47:35;;;;;;;9.38;3.58;;;3.80;99.90;;;;;;4942028;28;20369;-66
2024/02/02 05:50:00;;;;;;;10.05;3.25;;;3.80;99.90;;;;;;4949855;28;20038;-64
2024/02/02 05:52:26;;;;;;;11.93;2.80;;;3.80;99.90;;;;;;5012102;28;20064;-66
2024/02/02 05:54:52;;;;;;;9.43;2.80;;;3.80;99.90;;;;;;5022243;28;20037;-65
2024/02/02 05:57:18;;;;;;;4.63;2.58;;;3.80;99.90;;;;;;5031587;28;20032;-66
2024/02/02 05:59:43;;;;;;;6.28;2.80;;;3.80;99.90;;;;;;5029702;28;20072;-66
2024/02/02 06:02:09;;;;;;;2.78;1.73;;;3.80;99.90;;;;;;5031668;28;20469;-66
2024/02/02 06:04:35;;;;;;;5.60;2.58;;;3.80;99.90;;;;;;5029038;28;20112;-65
2024/02/02 06:07:01;;;;;;;16.42;3.97;;;3.80;99.90;;;;;;5030190;28;20060;-68
2024/02/02 06:09:26;;;;;;;4.82;2.38;;;3.80;99.90;;;;;;5031675;28;20026;-65
2024/02/02 06:11:52;;;;;;;9.98;2.92;;;3.80;99.90;;;;;;5029528;28;20689;-66
2024/02/02 06:14:18;;;;;;;6.63;3.13;;;3.80;99.90;;;;;;5028886;28;20022;-67
2024/02/02 06:16:44;;;;;;;4.72;2.42;;;3.80;99.90;;;;;;5023311;28;20092;-66
2024/02/02 06:19:10;;;;;;;9.48;2.75;;;3.80;99.90;;;;;;5021156;28;20500;-66
2024/02/02 06:21:35;;;;;;;8.07;2.40;;;3.70;99.90;;;;;;5031093;28;20025;-67
2024/02/02 06:24:02;;;;;;;13.68;3.08;;;3.70;99.90;;;;;;5025128;28;20029;-67
2024/02/02 06:26:28;;;;;;;7.03;3.10;;;3.70;99.90;;;;;;5023821;28;20025;-67
2024/02/02 06:28:54;;;;;;;10.80;3.65;;;3.70;99.90;;;;;;5016818;28;20025;-67
2024/02/02 06:31:21;;;;;;;18.65;4.22;;;3.70;99.90;;;;;;5023359;28;20026;-66
2024/02/02 06:33:47;;;;;;;12.38;3.25;;;3.70;99.90;;;;;;4957755;28;20066;-66
2024/02/02 06:36:13;;;;;;;9.07;3.33;;;3.60;99.90;;;;;;4942091;28;20078;-66
2024/02/02 06:38:39;;;;;;;6.03;3.05;;;3.70;99.90;;;;;;4943671;28;20032;-66
2024/02/02 06:41:06;;;;;;;8.57;3.78;;;3.60;99.90;;;;;;4950820;28;20092;-67
2024/02/02 06:43:31;;;;;;;11.43;3.70;;;3.60;99.90;;;;;;4942301;28;20043;-66
2024/02/02 06:45:57;;;;;;;5.57;3.90;;;3.70;99.90;;;;;;4951177;28;20031;-67
2024/02/02 06:48:23;;;;;;;11.90;3.65;;;3.70;99.90;;;;;;4925744;28;20121;-67
2024/02/02 06:50:49;;;;;;;12.40;4.70;;;3.70;99.90;;;;;;4951019;28;20085;-66
2024/02/02 06:53:16;;;;;;;6.38;2.85;;;3.70;99.90;;;;;;4963506;28;20032;-66
2024/02/02 06:55:43;;;;;;;13.52;6.25;;;3.70;99.90;;;;;;4950206;28;20042;-66
2024/02/02 06:58:41;;;;;;;18.35;3.80;;;3.70;99.90;;;;;;4942903;28;20165;-66
2024/02/02 07:01:09;;;;;;;7.65;3.03;;;3.70;99.90;;;;;;4953173;28;20031;-66
2024/02/02 07:03:35;;;;;;;15.85;3.55;;;3.70;99.90;;;;;;4954728;28;20036;-66
2024/02/02 07:06:03;;;;;;;19.10;4.05;;;3.70;99.90;;;;;;4950823;28;20062;-66
2024/02/02 07:08:32;;;;;;;11.35;3.90;;;3.70;99.90;;;;;;4951617;28;20422;-66
2024/02/02 07:11:13;;;;;;;9.43;3.20;;;3.60;99.90;;;;;;4950812;28;20431;-58
2024/02/02 07:13:51;;;;;;;20.05;4.05;;;3.70;99.90;;;;;;4956875;28;20085;-58
2024/02/02 07:16:32;;;;;;;10.93;3.47;;;3.80;99.90;;;;;;4953177;28;20035;-55
2024/02/02 07:18:58;;;;;;;8.05;2.80;;;3.80;99.90;;;;;;4953089;28;20050;-55
2024/02/02 07:21:37;;;;;;;6.65;3.30;;;3.80;99.90;;;;;;4948445;28;20396;-54
2024/02/02 07:24:03;;;;;;;9.40;4.78;;;3.90;99.90;;;;;;4950272;28;20036;-55
2024/02/02 07:26:36;;;;;;;11.95;3.58;;;3.90;99.90;;;;;;4953351;28;20031;-57
2024/02/02 07:29:08;;;;;;;9.77;3.80;;;3.90;99.90;;;;;;4945138;28;20501;-67
2024/02/02 07:31:35;;;;;;;;;;;3.90;99.90;;;;;;4946011;28;20419;-67
2024/02/02 07:34:38;;;;;;;8.27;2.95;;;3.90;99.90;;;;;;4948164;28;19918;-67
2024/02/02 07:37:11;;;;;;;11.25;3.72;;;3.90;99.90;;;;;;4951985;28;20085;-67
2024/02/02 07:39:37;;;;;;;7.25;3.10;;;4.00;99.90;;;;;;4951466;28;20041;-67
2024/02/02 07:42:03;;;;;;;7.50;3.90;;;4.00;99.90;;;;;;4951622;28;20035;-67
2024/02/02 07:44:29;;;;;;;12.20;5.30;;;3.90;99.90;;;;;;4950678;28;20031;-67
2024/02/02 07:46:55;;;;;;;12.55;4.93;;;4.00;99.90;;;;;;4952413;28;20036;-67
2024/02/02 07:49:21;;;;;;;11.98;4.05;;;4.00;99.90;;;;;;4952186;28;20126;-67
2024/02/02 07:51:46;;;;;;;9.30;5.78;;;4.00;99.90;;;;;;4967589;28;20028;-67
2024/02/02 07:54:12;;;;;;;18.13;6.55;;;4.10;99.90;;;;;;4951833;28;20507;-67
2024/02/02 07:56:38;;;;;;;10.55;5.10;;;4.10;99.90;;;;;;4948370;28;20031;-67
2024/02/02 07:59:04;;;;;;;6.65;3.20;;;4.20;99.90;;;;;;5011646;28;20039;-68
2024/02/02 08:01:33;;;;;;;6.38;3.70;;;4.20;99.90;;;;;;4951419;28;20387;-68
2024/02/02 08:04:00;;;;;;;12.10;4.90;;;4.20;99.90;;;;;;4951101;28;20415;-68
2024/02/02 08:06:26;;;;;;;9.40;4.75;;;4.30;99.90;;;;;;4951345;29;20034;-68
2024/02/02 08:08:52;;;;;;;8.57;3.53;;;4.30;99.90;;;;;;4952497;28;20035;-68
2024/02/02 08:11:18;;;;;;;14.20;4.25;;;4.40;99.90;;;;;;4934597;28;20027;-68
2024/02/02 08:13:44;;;;;;;8.32;4.25;;;4.40;99.90;;;;;;4950636;28;20035;-68
2024/02/02 08:16:10;;;;;;;18.42;4.78;;;4.40;99.90;;;;;;4984837;28;20096;-68
2024/02/02 08:18:36;;;;;;;9.63;4.50;;;4.50;99.90;;;;;;4952208;28;20031;-68
2024/02/02 08:21:02;;;;;;;10.15;4.57;;;4.50;99.90;;;;;;4944252;28;20032;-68
2024/02/02 08:23:28;;;;;;;10.85;4.20;;;4.60;99.90;;;;;;4951749;28;20122;-69
2024/02/02 08:25:54;;;;;;;7.68;4.30;;;4.60;99.90;;;;;;4952251;28;20032;-68
2024/02/02 08:28:20;;;;;;;17.73;5.63;;;4.70;99.90;;;;;;4952460;28;20487;-68
2024/02/02 08:30:47;;;;;;;8.00;5.50;;;4.70;99.90;;;;;;4947908;29;20028;-68
2024/02/02 08:33:13;;;;;;;13.82;5.97;;;4.90;99.90;;;;;;5006430;28;20040;-67
2024/02/02 08:35:39;;;;;;;18.60;5.07;;;4.90;99.90;;;;;;4951049;28;20028;-69
2024/02/02 08:38:11;;;;;;;14.30;4.25;;;5.10;99.90;;;;;;4950675;28;20035;-68
2024/02/02 08:40:41;;;;;;;14.13;4.45;;;5.20;99.90;;;;;;4961450;28;20035;-68
2024/02/02 08:43:19;;;;;;;11.05;4.63;;;5.20;99.90;;;;;;4951360;28;20066;-67
2024/02/02 08:46:04;;;;;;;9.43;4.50;;;5.30;99.90;;;;;;4946284;29;20035;-69
2024/02/02 08:48:46;;;;;;;12.68;4.38;;;5.40;99.90;;;;;;4948692;28;20114;-69
2024/02/02 08:51:21;;;;;;;9.48;4.10;;;5.50;99.90;;;;;;4947897;28;20110;-68
2024/02/02 08:53:54;;;;;;;15.48;5.05;;;5.50;99.90;;;;;;4951121;28;20121;-68
2024/02/02 08:56:20;;;;;;;10.00;4.22;;;5.60;99.90;;;;;;4944046;28;20027;-68
2024/02/02 08:58:46;;;;;;;10.50;3.50;;;5.60;99.90;;;;;;4951665;28;20043;-67
2024/02/02 09:01:44;;;;;;;13.27;4.07;;;5.60;99.90;;;;;;4951636;28;20034;-68
2024/02/02 09:04:51;;;;;;;6.35;3.13;;;5.60;99.90;;;;;;4956215;28;20047;-68
2024/02/02 09:07:17;;;;;;;10.52;4.07;;;5.70;99.90;;;;;;4951365;28;20031;-67
2024/02/02 09:09:44;;;;;;;9.05;3.65;;;5.80;99.90;;;;;;4951179;28;20043;-68
2024/02/02 09:12:10;;;;;;;15.32;3.78;;;5.80;99.90;;;;;;4943503;28;20033;-68
2024/02/02 09:14:36;;;;;;;7.38;3.30;;;5.90;99.90;;;;;;4926871;29;20511;-68
2024/02/02 09:17:02;;;;;;;12.20;4.20;;;6.00;99.90;;;;;;4955658;28;20031;-69
2024/02/02 09:19:37;;;;;;;7.32;3.97;;;6.10;99.90;;;;;;4946752;28;20032;-69
2024/02/02 09:22:17;;;;;;;8.23;3.63;;;6.20;99.90;;;;;;5044978;28;20034;-69
2024/02/02 09:24:46;;;;;;;7.05;2.97;;;6.30;99.90;;;;;;4977692;28;20104;-69
2024/02/02 09:27:17;;;;;;;10.93;3.17;;;6.40;99.90;;;;;;4956034;28;20031;-69
2024/02/02 09:29:47;;;;;;;10.75;4.40;;;6.50;99.90;;;;;;4946524;28;20108;-69
2024/02/02 09:32:15;;;;;;;3.78;2.22;;;6.60;99.90;;;;;;4949924;28;20050;-69
2024/02/02 09:34:43;;;;;;;9.75;2.88;;;6.60;99.90;;;;;;4948719;28;20031;-69
2024/02/02 09:37:46;;;;;;;25.83;9.02;;;6.60;99.90;;;;;;4945691;28;20574;-69
2024/02/02 09:41:02;;;;;;;7.55;2.58;;;6.60;99.90;;;;;;4949989;28;20129;-67
2024/02/02 09:44:24;;;;;;;2.75;1.98;;;6.80;99.90;;;;;;4945904;28;20024;-68
2024/02/02 09:47:23;;;;;;;16.33;3.03;;;7.00;99.90;;;;;;4931506;29;20119;-69
2024/02/02 09:50:36;;;;;;;16.27;3.92;;;7.30;99.90;;;;;;4938420;29;20043;-69
2024/02/02 09:53:57;;;;;;;14.63;2.97;;;7.60;99.90;;;;;;4920230;29;20032;-69
2024/02/02 09:56:40;;;;;;;4.70;2.72;;;7.70;99.90;;;;;;4921725;29;20035;-69
2024/02/02 09:59:43;;;;;;;10.65;3.20;;;7.90;99.90;;;;;;4920981;28;20036;-69
2024/02/02 10:02:23;;;;;;;9.15;2.67;;;8.20;99.90;;;;;;4926176;28;20059;-69
2024/02/02 10:05:56;;;;;;;5.93;2.83;;;8.30;99.90;;;;;;4916350;29;20055;-69
2024/02/02 10:08:35;;;;;;;12.32;2.30;;;8.30;99.90;;;;;;4901537;29;20079;-69
2024/02/02 10:11:35;;;;;;;5.53;2.83;;;8.50;99.90;;;;;;4872102;29;20052;-69
2024/02/02 10:14:31;;;;;;;5.78;2.42;;;8.90;99.90;;;;;;4906455;28;20098;-69
2024/02/02 10:17:11;;;;;;;4.50;1.75;;;9.90;99.90;;;;;;4919915;29;20507;-69
2024/02/02 10:20:13;;;;;;;4.40;2.10;;;9.90;99.90;;;;;;4915788;29;20105;-68
2024/02/02 10:23:13;;;;;;;5.80;2.00;;;11.20;99.90;;;;;;4923566;28;20126;-68
2024/02/02 10:26:15;;;;;;;6.13;2.10;;;12.60;99.90;;;;;;4950640;28;20097;-68
2024/02/02 10:29:08;;;;;;;10.02;2.28;;;12.00;99.90;;;;;;4949154;28;20015;-67
2024/02/02 10:32:07;;;;;;;7.13;2.35;;;12.10;99.90;;;;;;4950538;28;20032;-67
2024/02/02 10:35:04;;;;;;;5.72;1.73;;;11.60;99.90;;;;;;4948453;28;20062;-68
2024/02/02 10:37:38;;;;;;;2.60;1.13;;;10.90;99.90;;;;;;4941762;28;20030;-67
2024/02/02 10:40:26;;;;;;;8.20;2.03;;;11.20;99.90;;;;;;4946104;28;20023;-69
2024/02/02 10:43:11;;;;;;;6.90;1.55;;;11.60;99.90;;;;;;4980167;28;20112;-70
2024/02/02 10:46:00;;;;;;;9.10;4.22;;;10.90;99.90;;;;;;4974199;28;20089;-68
2024/02/02 10:49:07;;;;;;;20.40;3.15;;;11.50;99.90;;;;;;4945215;29;20047;-69
2024/02/02 10:52:04;;;;;;;14.50;2.33;;;11.80;99.90;;;;;;4987025;28;20124;-69
2024/02/02 10:54:51;;;;;;;10.23;1.75;;;12.10;99.90;;;;;;4942168;28;20491;-69
2024/02/02 10:57:49;;;;;;;4.82;1.48;;;11.40;99.90;;;;;;4949672;28;20043;-69
2024/02/02 11:00:23;;;;;;;5.97;1.50;;;11.40;99.90;;;;;;4981868;28;20066;-69
2024/02/02 11:03:30;;;;;;;9.68;1.85;;;11.80;99.90;;;;;;4941794;28;20122;-69
2024/02/02 11:06:36;;;;;;;9.32;1.40;;;11.70;99.90;;;;;;4940455;28;20043;-69
2024/02/02 11:09:23;;;;;;;3.83;1.13;;;12.80;99.90;;;;;;5036108;28;20047;-68
2024/02/02 11:12:05;;;;;;;11.35;1.45;;;11.70;99.90;;;;;;4947622;28;20051;-67
2024/02/02 11:14:41;;;;;;;8.55;1.40;;;12.50;99.90;;;;;;4978368;28;20635;-67
2024/02/02 11:17:33;;;;;;;3.92;1.95;;;11.70;99.90;;;;;;4947892;28;20096;-67
2024/02/02 11:20:10;;;;;;;3.85;1.55;;;11.10;99.90;;;;;;4946536;29;20071;-68
2024/02/02 11:22:57;;;;;;;8.07;2.58;;;11.70;99.90;;;;;;4943294;28;20444;-67
2024/02/02 11:25:36;;;;;;;6.30;1.30;;;11.30;99.90;;;;;;4940362;28;20032;-68
2024/02/02 11:28:30;;;;;;;3.08;1.27;;;11.30;99.90;;;;;;4945037;28;20059;-68
2024/02/02 11:31:56;;;;;;;3.92;1.17;;;11.70;99.90;;;;;;4947749;28;20106;-68
2024/02/02 11:34:42;;;;;;;4.32;1.20;;;11.30;99.90;;;;;;5007627;28;20038;-68
2024/02/02 11:37:31;;;;;;;5.10;0.80;;;11.20;99.90;;;;;;4948580;28;20045;-68
2024/02/02 11:40:10;;;;;;;8.93;1.02;;;11.20;99.90;;;;;;4948679;28;20454;-68
2024/02/02 11:42:38;;;;;;;1.60;1.20;;;11.30;99.90;;;;;;4948287;28;20145;-69
2024/02/02 11:45:10;;;;;;;1.55;0.93;;;10.90;99.90;;;;;;4956198;28;20120;-68
2024/02/02 11:47:50;;;;;;;3.15;1.33;;;11.00;99.90;;;;;;4967800;28;20359;-68
2024/02/02 11:50:20;;;;;;;3.10;0.82;;;11.00;99.90;;;;;;4953590;28;20624;-68
2024/02/02 11:53:14;;;;;;;1.83;0.80;;;11.50;99.90;;;;;;4945328;28;20047;-68
2024/02/02 11:55:46;;;;;;;4.03;1.08;;;11.40;99.90;;;;;;4946260;28;20055;-68
2024/02/02 11:58:16;;;;;;;1.77;1.08;;;11.30;99.90;;;;;;4947138;28;20035;-68
2024/02/02 12:01:13;;;;;;;5.53;0.93;;;12.20;99.90;;;;;;4942613;28;20035;-68
2024/02/02 12:04:29;;;;;;;4.25;1.35;;;12.20;99.90;;;;;;4956831;28;20048;-68
2024/02/02 12:07:10;;;;;;;1.50;0.70;;;12.10;99.90;;;;;;4949644;28;20040;-72
2024/02/02 12:09:44;;;;;;;6.88;1.02;;;11.30;99.90;;;;;;4944581;28;20114;-72
2024/02/02 12:12:26;;;;;;;6.32;1.15;;;12.10;99.90;;;;;;4936715;28;20692;-72
2024/02/02 12:14:52;;;;;;;3.13;0.70;;;11.90;99.90;;;;;;4940380;28;20035;-72
2024/02/02 12:17:21;;;;;;;3.30;0.82;;;11.80;99.90;;;;;;4945820;28;20108;-72
2024/02/02 12:19:47;;;;;;;6.13;0.82;;;11.80;99.90;;;;;;4942989;28;20036;-72
2024/02/02 12:22:16;;;;;;;1.33;0.68;;;11.50;99.90;;;;;;5007180;28;20035;-72
2024/02/02 12:24:42;;;;;;;5.03;1.20;;;11.50;99.90;;;;;;4950330;28;20502;-73
2024/02/02 12:27:08;;;;;;;4.30;0.80;;;11.80;99.90;;;;;;4960653;28;20519;-72
2024/02/02 12:29:38;;;;;;;3.63;1.00;;;11.50;99.90;;;;;;4948663;29;20067;-76
2024/02/02 12:32:08;;;;;;;3.05;0.73;;;11.70;99.90;;;;;;4949713;28;20046;-72
2024/02/02 12:34:35;;;;;;;2.97;0.70;;;11.40;99.90;;;;;;4949759;28;20534;-72
2024/02/02 12:37:01;;;;;;;5.43;1.42;;;11.70;99.90;;;;;;4943382;28;20495;-73
2024/02/02 12:39:31;;;;;;;2.47;0.98;;;11.90;99.90;;;;;;4947057;28;20043;-73
2024/02/02 12:42:03;;;;;;;2.38;0.55;;;12.50;99.90;;;;;;4948978;28;20170;-72
2024/02/02 12:44:30;;;;;;;2.95;0.60;;;12.50;99.90;;;;;;4949679;28;20043;-71
2024/02/02 12:46:56;;;;;;;2.83;0.80;;;11.80;99.90;;;;;;4950413;28;20042;-73
2024/02/02 12:49:22;;;;;;;2.33;0.93;;;12.00;99.90;;;;;;4961861;28;20031;-72
2024/02/02 12:51:48;;;;;;;3.20;0.77;;;12.70;99.90;;;;;;4949073;28;20035;-72
2024/02/02 12:54:15;;;;;;;1.67;0.80;;;12.20;99.90;;;;;;4948614;28;20365;-72
2024/02/02 12:56:42;;;;;;;4.47;1.30;;;12.50;99.90;;;;;;4950183;28;20504;-72
2024/02/02 12:59:12;;;;;;;2.80;0.80;;;12.40;99.90;;;;;;4951908;28;20107;-73
2024/02/02 13:01:41;;;;;;;2.75;0.85;;;12.40;99.90;;;;;;4952048;28;20511;-72
2024/02/02 13:04:08;;;;;;;5.22;1.50;;;12.90;99.60;;;;;;4951704;28;20170;-71
2024/02/02 13:06:34;;;;;;;3.17;1.23;;;12.60;99.90;;;;;;4950201;28;20034;-71
2024/02/02 13:09:19;;;;;;;5.38;1.70;;;13.00;99.90;;;;;;4945982;28;20038;-72
2024/02/02 13:11:48;;;;;;;7.57;2.88;;;13.20;99.20;;;;;;4951692;28;20110;-71
2024/02/02 13:14:35;;;;;;;1.10;0.70;;;13.50;98.60;;;;;;4950290;28;20054;-73
2024/02/02 13:17:09;;;;;;;1.52;0.70;;;13.50;97.50;;;;;;4943044;28;20064;-72